NEODyS-2

Near Earth Objects - Dynamic Site
NEODyS ∴ Observatories ∴ Site 691 ∴ Obs & residuals
Contact »
691  ▹ 
OBSERVATIONS AND RESIDUALS

691-Steward Observatory, Kitt Peak-Spacewatch

Detections | Residuals | Detections & Residuals

[1-200] [201-400] [401-600] [601-800] [801-1000] [1001-1200] [1201-1400] [1401-1600] [1601-1800] [1801-2000] [2001-2200] [2201-2400] [2401-2600] [2601-2800] [2801-3000] [3001-3200] [3201-3400] [3401-3600] [3601-3800] [3801-4000] [4001-4200] [4201-4400] [4401-4600] [4601-4800] [4801-5000] [5001-5200] [5201-5400] [5401-5600] [5601-5800] [5801-6000] [6001-6200] [6201-6400] [6401-6600] [6601-6800] [6801-7000] [7001-7200] [7201-7400] [7401-7600] [7601-7800] [7801-8000] [8001-8200] [8201-8400] [8401-8600] [8601-8800] [8801-9000] [9001-9200] [9201-9400] [9401-9600] [9601-9800] [9801-10000] [10001-10200] [10201-10400] [10401-10600] [10601-10800] [10801-11000] [11001-11200] [11201-11400] [11401-11600] [11601-11800] [11801-12000] [12001-12200] [12201-12400] [12401-12600] [12601-12800] [12801-13000] [13001-13200] [13201-13400] [13401-13600] [13601-13800] [13801-14000] [14001-14200] [14201-14400] [14401-14600] [14601-14800] [14801-15000] [15001-15200] [15201-15400] [15401-15600] [15601-15800] [15801-16000] [16001-16200] [16201-16400] [16401-16600] [16601-16800] [16801-17000] [17001-17200] [17201-17400] [17401-17600] [17601-17800] [17801-18000] [18001-18200] [18201-18400] [18401-18600] [18601-18800] [18801-19000] [19001-19200] [19201-19400] [19401-19600] [19601-19800] [19801-20000] [20001-20200] [20201-20400] [20401-20600] [20601-20800] [20801-21000] [21001-21200] [21201-21400] [21401-21600] [21601-21800] [21801-22000] [22001-22200] [22201-22400] [22401-22600] [22601-22800] [22801-23000] [23001-23200] [23201-23400] [23401-23600] [23601-23800] [23801-24000] [24001-24200] [24201-24400] [24401-24600] [24601-24800] [24801-25000] [25001-25200] [25201-25400] [25401-25600] [25601-25800] [25801-26000] [26001-26200] [26201-26400] [26401-26600] [26601-26800] [26801-27000] [27001-27200] [27201-27400] [27401-27600] [27601-27800] [27801-28000] [28001-28200] [28201-28400] [28401-28600] [28601-28800] [28801-29000] [29001-29200] [29201-29400] [29401-29600] [29601-29800] [29801-30000] [30001-30200] [30201-30400] [30401-30600] [30601-30800] [30801-31000] [31001-31200] [31201-31400] [31401-31600] [31601-31800] [31801-32000] [32001-32200] [32201-32400] [32401-32600] [32601-32800] [32801-33000] [33001-33200] [33201-33400] [33401-33600] [33601-33800] [33801-34000] [34001-34200] [34201-34400] [34401-34600] [34601-34800] [34801-35000] [35001-35200] [35201-35400] [35401-35600] [35601-35800] [35801-36000] [36001-36200] [36201-36400] [36401-36600] [36601-36800] [36801-37000] [37001-37200] [37201-37400] [37401-37600] [37601-37800] [37801-38000] [38001-38200] [38201-38400] [38401-38600] [38601-38800] [38801-39000] [39001-39200] [39201-39400] [39401-39600] [39601-39800] [39801-40000] [40001-40200] [40201-40400] [40401-40600] [40601-40800] [40801-41000] [41001-41200] [41201-41400] [41401-41600] [41601-41800] [41801-42000] [42001-42200] [42201-42400] [42401-42600] [42601-42800] [42801-43000] [43001-43200] [43201-43400] [43401-43600] [43601-43800] [43801-44000] [44001-44200] [44201-44400] [44401-44600] [44601-44800] [44801-45000] [45001-45200] [45201-45400] [45401-45600] [45601-45800] [45801-46000] [46001-46200] [46201-46400] [46401-46600] [46601-46800] [46801-47000] [47001-47200] [47201-47400] [47401-47600] [47601-47800] [47801-48000] [48001-48200] [48201-48400] [48401-48600] [48601-48800] [48801-49000] [49001-49200] [49201-49400] [49401-49600] [49601-49800] [49801-50000] [50001-50200] [50201-50388]

Designation T Tech N Date Right Ascension Declination Apparent Magnitude Star Catalog Site code χ Used A Used M
yr-mo-day precision hr:min:sec precision rms F bias residual deg min sec precision rms F bias residual mag/col rms residual
2002VX94 O C 2007-09-10.25203 1.000E-05 22:59:40.550 1.500E-01 0.500 F -0.014 -0.186 +00° 18' 49.90" 1.000E-01 0.500 F 0.170 -0.058 20.0 V 0.70 -0.18 o 691 0.39 Yes Yes
1991DB O C 2007-09-10.28347 1.000E-05 23:49:00.290 1.500E-01 0.500 F -0.131 -0.098 -06° 31' 29.00" 1.000E-01 0.500 F 0.226 -0.028 20.9 V 0.70 0.04 o 691 0.20 Yes Yes
1991DB O C 2007-09-10.30115 1.000E-05 23:48:58.840 1.500E-01 0.500 F -0.131 -0.449 -06° 31' 44.70" 1.000E-01 0.500 F 0.226 -0.041 20.9 V 0.70 0.05 o 691 0.91 Yes Yes
1991DB O C 2007-09-10.31874 1.000E-05 23:48:57.460 1.500E-01 0.500 F -0.131 0.152 -06° 32' 00.00" 1.000E-01 0.500 F 0.226 0.255 20.7 V 0.70 -0.15 o 691 0.60 Yes Yes
1997GH28 O C H 2007-09-11.22419 1.000E-05 22:36:14.040 1.500E-01 0.500 F -0.108 0.143 -11° 59' 48.60" 1.000E-01 0.500 F 0.240 -0.099 20.3 V 0.70 0.39 o 691 0.35 Yes Yes
1997GH28 O C H 2007-09-11.24181 1.000E-05 22:36:12.560 1.500E-01 0.500 F -0.108 0.536 -11° 59' 53.30" 1.000E-01 0.500 F 0.240 -0.907 o 691 2.11 Yes No
1997GH28 O C H 2007-09-11.25945 1.000E-05 22:36:11.010 1.500E-01 0.500 F -0.108 -0.053 -11° 59' 56.20" 1.000E-01 0.500 F 0.240 0.069 20.3 V 0.70 0.39 o 691 0.17 Yes Yes
2007OV O C 2007-09-11.29509 1.000E-05 00:18:05.810 1.500E-01 0.500 F -0.160 -0.013 +00° 12' 42.30" 1.000E-01 0.500 F 0.262 0.091 18.4 V 0.70 0.24 o 691 0.19 Yes Yes
2007OV O C 2007-09-11.31269 1.000E-05 00:18:04.520 1.500E-01 0.500 F -0.160 -0.068 +00° 13' 23.50" 1.000E-01 0.500 F 0.262 -0.015 18.4 V 0.70 0.24 o 691 0.14 Yes Yes
2007OV O C 2007-09-11.33373 1.000E-05 00:18:02.960 1.500E-01 0.500 F -0.160 -0.310 +00° 14' 12.90" 1.000E-01 0.500 F 0.262 0.021 18.2 V 0.70 0.04 o 691 0.63 Yes Yes
2003BT47 O C H 2007-09-11.41589 1.000E-05 00:41:53.630 1.500E-01 0.500 F -0.246 -0.677 +06° 42' 42.60" 1.000E-01 0.500 F 0.165 0.235 21.5 V 0.70 0.28 o 691 1.44 Yes Yes
2003BT47 O C H 2007-09-11.45105 1.000E-05 00:41:51.440 1.500E-01 0.500 F -0.246 -0.110 +06° 42' 33.80" 1.000E-01 0.500 F 0.165 -0.113 21.4 V 0.70 0.18 o 691 0.32 Yes Yes
2007QX14 O C 2007-09-12.28193 1.000E-05 23:27:07.640 1.500E-01 0.500 F -0.189 -0.195 -11° 02' 01.50" 1.000E-01 0.500 F 0.337 -0.075 19.4 V 0.70 0.63 o 691 0.43 Yes Yes
2007QX14 O C 2007-09-12.30299 1.000E-05 23:27:06.020 1.500E-01 0.500 F -0.189 -0.184 -11° 02' 01.20" 1.000E-01 0.500 F 0.337 -0.475 18.7 V 0.70 -0.07 o 691 1.04 Yes Yes
2007QX14 O C 2007-09-12.32749 1.000E-05 23:27:04.140 1.500E-01 0.500 F -0.189 -0.099 -11° 01' 59.90" 1.000E-01 0.500 F 0.337 -0.040 19.5 V 0.70 0.73 o 691 0.22 Yes Yes
2003BT47 O C 2007-09-12.42464 1.000E-05 00:40:50.950 1.500E-01 0.500 F -0.218 0.033 +06° 38' 37.80" 1.000E-01 0.500 F 0.153 0.012 21.5 V 0.70 0.30 o 691 0.07 Yes Yes
2003BT47 O C 2007-09-12.44223 1.000E-05 00:40:49.810 1.500E-01 0.500 F -0.218 -0.135 +06° 38' 33.50" 1.000E-01 0.500 F 0.153 0.059 21.2 V 0.70 0.00 o 691 0.29 Yes Yes
2003BT47 O C 2007-09-12.45982 1.000E-05 00:40:48.660 1.500E-01 0.500 F -0.218 -0.472 +06° 38' 28.80" 1.000E-01 0.500 F 0.153 -0.286 21.0 V 0.70 -0.20 o 691 1.11 Yes Yes
2000HO14 O C 2007-09-13.29145 1.000E-05 23:54:56.870 1.500E-01 0.500 F -0.113 -0.040 +08° 52' 48.10" 1.000E-01 0.500 F 0.230 0.068 19.6 V 0.70 0.13 o 691 0.16 Yes Yes
2000HO14 O C 2007-09-13.30912 1.000E-05 23:54:55.680 1.500E-01 0.500 F -0.113 0.193 +08° 52' 34.40" 1.000E-01 0.500 F 0.230 -0.051 19.7 V 0.70 0.23 o 691 0.41 Yes Yes
2000HO14 O C 2007-09-13.32435 1.000E-05 23:54:54.630 1.500E-01 0.500 F -0.113 0.046 +08° 52' 22.70" 1.000E-01 0.500 F 0.230 -0.028 19.7 V 0.70 0.23 o 691 0.11 Yes Yes
2007TG8 O C 2007-09-13.35402 1.000E-05 00:25:57.440 1.500E-01 0.500 F -0.043 -0.308 +09° 57' 31.90" 1.000E-01 0.500 F 0.275 0.347 19.6 V 0.70 -0.05 o 691 0.93 Yes Yes
2007TG8 O C 2007-09-13.37166 1.000E-05 00:25:56.080 1.500E-01 0.500 F -0.043 -0.152 +09° 57' 47.80" 1.000E-01 0.500 F 0.275 0.023 19.7 V 0.70 0.05 o 691 0.31 Yes Yes
2007TG8 O C 2007-09-13.38929 1.000E-05 00:25:54.700 1.500E-01 0.500 F -0.043 -0.303 +09° 58' 04.90" 1.000E-01 0.500 F 0.275 0.926 19.4 V 0.70 -0.25 o 691 1.95 Yes Yes
2002TD66 O C t 2007-09-14.18205 1.000E-05 22:59:05.520 1.500E-01 0.500 F -0.048 0.833 -03° 35' 32.90" 1.000E-01 0.500 F 0.253 -0.485 o 691 1.95 Yes No
2002TD66 O C t 2007-09-14.19963 1.000E-05 22:59:03.370 1.500E-01 0.500 F -0.048 0.481 -03° 35' 39.30" 1.000E-01 0.500 F 0.253 -0.673 o 691 1.66 Yes No
2002VX94 O C H 2007-09-14.22653 1.000E-05 22:53:11.600 1.500E-01 0.500 F 0.061 -0.728 -00° 09' 42.50" 1.000E-01 0.500 F 0.226 0.028 o 691 1.46 Yes No
2002VX94 O C H 2007-09-14.24411 1.000E-05 22:53:09.900 1.500E-01 0.500 F 0.061 -0.096 -00° 09' 51.10" 1.000E-01 0.500 F 0.226 -0.933 o 691 1.88 Yes No
2002VX94 O C H 2007-09-14.24944 1.000E-05 22:53:09.360 1.500E-01 0.500 F 0.061 -0.270 -00° 09' 52.80" 1.000E-01 0.500 F 0.226 -0.317 o 691 0.84 Yes No
1991DB O C 2007-09-14.29853 1.000E-05 23:43:46.250 1.500E-01 0.500 F -0.078 -0.216 -07° 29' 52.40" 1.000E-01 0.500 F 0.070 0.083 20.9 V 0.70 0.11 o 691 0.46 Yes Yes
2007RY8 O C t 2007-09-14.30115 1.000E-05 23:29:48.010 1.500E-01 0.500 F -0.281 0.298 -05° 14' 11.50" 1.000E-01 0.500 F 0.222 -0.835 20.8 V 0.70 0.11 o 691 1.98 Yes Yes
1991DB O C 2007-09-14.31612 1.000E-05 23:43:44.830 1.500E-01 0.500 F -0.078 -0.141 -07° 30' 07.50" 1.000E-01 0.500 F 0.070 0.052 20.9 V 0.70 0.11 o 691 0.30 Yes Yes
2007RY8 O C t 2007-09-14.31873 1.000E-05 23:29:42.440 1.500E-01 0.500 F -0.246 0.651 -05° 13' 33.50" 1.000E-01 0.500 F 0.145 -0.419 o 691 1.77 Yes No
1991DB O C 2007-09-14.33370 1.000E-05 23:43:43.400 1.500E-01 0.500 F -0.078 -0.225 -07° 30' 22.80" 1.000E-01 0.500 F 0.070 -0.202 20.7 V 0.70 -0.09 o 691 0.61 Yes Yes
2007RV9 O C 2007-09-15.16322 1.000E-05 22:42:57.520 1.500E-01 0.500 F -0.012 -0.148 -06° 08' 28.00" 1.000E-01 0.500 F 0.204 0.096 o 691 0.35 Yes No
2007RV9 O C 2007-09-15.18081 1.000E-05 22:42:55.170 1.500E-01 0.500 F -0.012 -0.366 -06° 08' 32.80" 1.000E-01 0.500 F 0.204 0.261 o 691 0.90 Yes No
2007RV9 O C 2007-09-15.19593 1.000E-05 22:42:53.170 1.500E-01 0.500 F -0.012 -0.185 -06° 08' 37.60" 1.000E-01 0.500 F 0.204 -0.281 o 691 0.68 Yes No
2003BT47 O C H 2007-09-15.40126 1.000E-05 00:37:41.560 1.500E-01 0.500 F -0.218 0.412 +06° 25' 59.20" 1.000E-01 0.500 F 0.153 0.803 o 691 1.81 Yes No
2003BT47 O C H 2007-09-15.41886 1.000E-05 00:37:40.290 1.500E-01 0.500 F -0.218 -1.131 +06° 25' 54.00" 1.000E-01 0.500 F 0.153 0.269 o 691 2.33 Yes No
2003BT47 O C H 2007-09-15.43392 1.000E-05 00:37:39.360 1.500E-01 0.500 F -0.218 -0.130 +06° 25' 49.60" 1.000E-01 0.500 F 0.153 -0.134 o 691 0.37 Yes No
2007SR1 O C 2007-09-18.41425 1.000E-05 01:30:26.550 1.500E-01 0.500 F -0.199 -0.220 +05° 47' 34.70" 1.000E-01 0.500 F 0.226 -0.128 20.5 V 0.70 -0.53 o 691 0.52 Yes Yes
2007RS12 O C H 2007-09-18.42176 1.000E-05 01:27:08.900 1.500E-01 0.500 F -0.089 0.592 +03° 50' 22.80" 1.000E-01 0.500 F 0.176 -0.105 21.2 V 0.70 0.06 o 691 1.26 Yes Yes
2007SR1 O C 2007-09-18.43182 1.000E-05 01:30:23.570 1.500E-01 0.500 F -0.199 -0.633 +05° 47' 36.70" 1.000E-01 0.500 F 0.226 -0.042 20.7 V 0.70 -0.33 o 691 1.29 Yes Yes
2007RS12 O C H 2007-09-18.43686 1.000E-05 01:27:10.750 1.500E-01 0.500 F -0.089 0.162 +03° 49' 59.10" 1.000E-01 0.500 F 0.176 0.154 21.0 V 0.70 -0.14 o 691 0.47 Yes Yes
2007SR1 O C 2007-09-18.44692 1.000E-05 01:30:21.090 1.500E-01 0.500 F -0.199 0.203 +05° 47' 38.70" 1.000E-01 0.500 F 0.226 0.327 20.7 V 0.70 -0.33 o 691 0.78 Yes Yes
2007RV9 O C H 2007-09-19.17276 1.000E-05 22:34:12.540 1.500E-01 0.500 F -0.020 -0.275 -06° 26' 47.60" 1.000E-01 0.500 F 0.159 -0.642 20.7 V 0.70 -0.09 o 691 1.41 Yes Yes
2007RV9 O C H 2007-09-19.19033 1.000E-05 22:34:10.110 1.500E-01 0.500 F -0.020 -0.575 -06° 26' 52.30" 1.000E-01 0.500 F 0.159 -0.561 20.6 V 0.70 -0.19 o 691 1.62 Yes Yes
2007RV9 O C H 2007-09-19.20790 1.000E-05 22:34:07.710 1.500E-01 0.500 F -0.020 -0.364 -06° 26' 56.60" 1.000E-01 0.500 F 0.159 -0.097 20.3 V 0.70 -0.49 o 691 0.76 Yes Yes
2002VX94 O C H 2007-09-19.23286 1.000E-05 22:45:23.750 1.500E-01 0.500 F -0.052 -0.475 -00° 45' 53.60" 1.000E-01 0.500 F 0.263 0.032 20.6 V 0.70 0.15 o 691 0.95 Yes Yes
2002VX94 O C H 2007-09-19.25043 1.000E-05 22:45:22.160 1.500E-01 0.500 F -0.052 0.178 -00° 46' 01.00" 1.000E-01 0.500 F 0.263 0.189 20.6 V 0.70 0.15 o 691 0.52 Yes Yes
2007RT12 O C H 2007-09-19.36238 1.000E-05 00:54:19.220 1.500E-01 0.500 F -0.154 0.002 -00° 28' 31.80" 1.000E-01 0.500 F 0.066 0.135 o 691 0.28 Yes No
2007RT12 O C t 2007-09-19.37994 1.000E-05 00:54:15.810 1.500E-01 0.500 F -0.154 -0.024 -00° 29' 19.80" 1.000E-01 0.500 F 0.066 -0.570 o 691 1.18 Yes No
2007TG8 O C 2007-09-19.40802 1.000E-05 00:17:26.220 1.500E-01 0.500 F -0.051 -0.396 +11° 34' 13.30" 1.000E-01 0.500 F 0.287 0.016 19.5 V 0.70 0.23 o 691 0.80 Yes Yes
2007TG8 O C 2007-09-19.42564 1.000E-05 00:17:24.460 1.500E-01 0.500 F -0.051 -0.323 +11° 34' 30.80" 1.000E-01 0.500 F 0.287 0.099 19.6 V 0.70 0.33 o 691 0.68 Yes Yes
2007TG8 O C 2007-09-19.44087 1.000E-05 00:17:22.950 1.500E-01 0.500 F -0.051 -0.146 +11° 34' 45.80" 1.000E-01 0.500 F 0.287 0.060 19.5 V 0.70 0.24 o 691 0.32 Yes Yes
2007PQ O C 2007-09-20.12609 1.000E-05 21:25:36.900 1.500E-01 0.500 F -0.089 -0.180 -10° 35' 03.10" 1.000E-01 0.500 F 0.231 -0.301 20.1 V 0.70 0.24 o 691 0.77 Yes Yes
2007PQ O C 2007-09-20.14203 1.000E-05 21:25:38.770 1.500E-01 0.500 F -0.089 -0.695 -10° 34' 28.50" 1.000E-01 0.500 F 0.231 0.191 19.8 V 0.70 -0.06 o 691 1.57 Yes Yes
2007PQ O C 2007-09-20.15795 1.000E-05 21:25:40.730 1.500E-01 0.500 F -0.089 0.252 -10° 33' 54.90" 1.000E-01 0.500 F 0.231 -0.298 20.2 V 0.70 0.34 o 691 0.85 Yes Yes
1997GH28 O C 2007-09-20.22289 1.000E-05 22:24:15.190 1.500E-01 0.500 F -0.129 -0.036 -12° 27' 00.80" 1.000E-01 0.500 F 0.143 -0.969 19.5 V 0.70 -0.60 o 691 1.94 Yes Yes
1997GH28 O C 2007-09-20.24053 1.000E-05 22:24:13.810 1.500E-01 0.500 F -0.129 0.025 -12° 27' 02.40" 1.000E-01 0.500 F 0.143 -0.102 20.3 V 0.70 0.20 o 691 0.21 Yes Yes
1997GH28 O C 2007-09-20.25818 1.000E-05 22:24:12.410 1.500E-01 0.500 F -0.129 -0.197 -12° 27' 04.90" 1.000E-01 0.500 F 0.143 -0.155 20.3 V 0.70 0.20 o 691 0.49 Yes Yes
2000HO14 O C 2007-09-20.33992 1.000E-05 23:47:35.450 1.500E-01 0.500 F -0.104 -3.092 +07° 20' 28.40" 1.000E-01 0.500 F 0.197 -0.141 19.0 V 0.70 -0.43 o 691 5.97 No Yes
2007OV O C 2007-09-20.35489 1.000E-05 00:08:02.130 1.500E-01 0.500 F -0.075 -0.119 +05° 40' 28.00" 1.000E-01 0.500 F 0.182 -0.036 18.3 V 0.70 0.21 o 691 0.25 Yes Yes
2000HO14 O C 2007-09-20.35750 1.000E-05 23:47:34.520 1.500E-01 0.500 F -0.104 -0.166 +07° 20' 14.90" 1.000E-01 0.500 F 0.197 0.314 19.5 V 0.70 0.07 o 691 0.71 Yes Yes
2007OV O C 2007-09-20.37248 1.000E-05 00:08:00.820 1.500E-01 0.500 F -0.075 0.118 +05° 41' 02.70" 1.000E-01 0.500 F 0.182 0.075 18.3 V 0.70 0.21 o 691 0.28 Yes Yes
2000HO14 O C 2007-09-20.37509 1.000E-05 23:47:33.380 1.500E-01 0.500 F -0.104 -0.397 +07° 20' 00.70" 1.000E-01 0.500 F 0.197 0.091 19.6 V 0.70 0.17 o 691 0.84 Yes Yes
2007OV O C 2007-09-20.39007 1.000E-05 00:07:59.490 1.500E-01 0.500 F -0.075 -0.035 +05° 41' 37.30" 1.000E-01 0.500 F 0.182 0.126 18.2 V 0.70 0.11 o 691 0.27 Yes Yes
2003BT47 O C H 2007-09-20.44259 1.000E-05 00:32:09.390 1.500E-01 0.500 F -0.180 -1.121 +06° 02' 43.60" 1.000E-01 0.500 F 0.225 1.033 o 691 3.05 Yes No
1986DA O C H 2007-09-20.45720 1.000E-05 01:29:43.370 1.500E-01 0.500 F -0.199 0.879 +05° 02' 58.80" 1.000E-01 0.500 F 0.226 0.904 o 691 2.53 Yes No
2007RS12 O C H 2007-09-20.46717 1.000E-05 01:31:41.650 1.500E-01 0.500 F -0.145 0.032 +02° 56' 53.60" 1.000E-01 0.500 F 0.181 0.238 o 691 0.52 Yes No
1986DA O C H 2007-09-20.47478 1.000E-05 01:29:42.640 1.500E-01 0.500 F -0.199 -0.046 +05° 02' 51.20" 1.000E-01 0.500 F 0.226 -2.573 21.7 V 0.70 -0.52 o 691 5.14 No Yes
2007RS12 O C H 2007-09-20.48476 1.000E-05 01:31:43.660 1.500E-01 0.500 F -0.145 -0.291 +02° 56' 26.10" 1.000E-01 0.500 F 0.181 0.196 21.2 V 0.70 0.05 o 691 0.76 Yes Yes
1986DA O C H 2007-09-20.49238 1.000E-05 01:29:41.940 1.500E-01 0.500 F -0.199 -0.525 +05° 02' 49.70" 1.000E-01 0.500 F 0.226 0.058 o 691 1.06 Yes No
2007RS12 O C H 2007-09-20.50236 1.000E-05 01:31:45.730 1.500E-01 0.500 F -0.145 0.009 +02° 55' 58.10" 1.000E-01 0.500 F 0.181 -0.318 o 691 0.69 Yes No
2007SV2 O C H 2007-09-21.30983 1.000E-05 22:15:07.660 1.500E-01 0.500 F -0.094 -0.851 +02° 31' 03.40" 1.000E-01 0.500 F 0.253 1.243 20.6 V 0.70 -0.30 o 691 3.03 Yes Yes
2007SV2 O C H 2007-09-21.31466 1.000E-05 22:15:07.040 1.500E-01 0.500 F -0.094 -0.472 +02° 31' 04.90" 1.000E-01 0.500 F 0.253 0.607 20.4 V 0.70 -0.50 o 691 1.55 Yes Yes
2007SV2 O C H 2007-09-21.31938 1.000E-05 22:15:06.460 1.500E-01 0.500 F -0.094 0.278 +02° 31' 06.50" 1.000E-01 0.500 F 0.253 0.120 20.5 V 0.70 -0.40 o 691 0.62 Yes Yes
2002RT129 O C 2007-09-21.38098 1.000E-05 00:57:19.320 1.500E-01 0.500 F -0.151 -0.420 +01° 04' 20.50" 1.000E-01 0.500 F 0.195 -0.254 19.8 V 0.70 0.18 o 691 0.99 Yes Yes
2007RU17 O C 2007-09-21.38098 1.000E-05 00:56:30.760 1.500E-01 0.500 F -0.151 -0.024 +01° 09' 46.30" 1.000E-01 0.500 F 0.195 0.087 19.7 V 0.70 -0.13 o 691 0.18 Yes Yes
2007RU17 O C 2007-09-21.38577 1.000E-05 00:56:30.180 1.500E-01 0.500 F -0.151 -0.281 +01° 09' 43.30" 1.000E-01 0.500 F 0.195 0.015 19.9 V 0.70 0.07 o 691 0.57 Yes Yes
2002RT129 O C 2007-09-21.38577 1.000E-05 00:57:18.410 1.500E-01 0.500 F -0.151 0.286 +01° 04' 08.90" 1.000E-01 0.500 F 0.195 0.224 19.7 V 0.70 0.08 o 691 0.73 Yes Yes
2002RT129 O C 2007-09-21.39061 1.000E-05 00:57:17.410 1.500E-01 0.500 F -0.151 -0.213 +01° 03' 56.40" 1.000E-01 0.500 F 0.195 -0.074 19.9 V 0.70 0.28 o 691 0.45 Yes Yes
2007RU17 O C 2007-09-21.39061 1.000E-05 00:56:29.590 1.500E-01 0.500 F -0.151 -0.600 +01° 09' 40.20" 1.000E-01 0.500 F 0.195 -0.126 19.9 V 0.70 0.07 o 691 1.24 Yes Yes
Nut O C 2007-09-30.12730 1.000E-05 22:46:57.470 1.500E-01 0.500 F -0.127 -0.355 -07° 32' 31.50" 1.000E-01 0.500 F 0.273 0.222 20.6 V 0.70 0.03 o 691 0.84 Yes Yes
Nut O C 2007-09-30.14898 1.000E-05 22:46:56.150 1.500E-01 0.500 F -0.127 -0.273 -07° 32' 38.60" 1.000E-01 0.500 F 0.273 0.288 20.6 V 0.70 0.03 o 691 0.80 Yes Yes
Nut O C 2007-09-30.17068 1.000E-05 22:46:54.830 1.500E-01 0.500 F -0.127 -0.147 -07° 32' 45.90" 1.000E-01 0.500 F 0.273 0.151 20.2 V 0.70 -0.37 o 691 0.42 Yes Yes
2001MT18 O C 2007-09-30.17715 1.000E-05 22:51:10.660 1.500E-01 0.500 F -0.228 -0.071 -08° 24' 39.20" 1.000E-01 0.500 F 0.264 0.190 20.8 V 0.70 0.37 o 691 0.41 Yes Yes
2001MT18 O C 2007-09-30.19866 1.000E-05 22:51:08.640 1.500E-01 0.500 F -0.228 -0.027 -08° 24' 57.30" 1.000E-01 0.500 F 0.264 0.073 20.6 V 0.70 0.17 o 691 0.16 Yes Yes
2001MT18 O C 2007-09-30.22016 1.000E-05 22:51:06.590 1.500E-01 0.500 F -0.228 -0.421 -08° 25' 15.00" 1.000E-01 0.500 F 0.264 0.319 20.2 V 0.70 -0.23 o 691 1.06 Yes Yes
Golevka O C 2007-10-04.24965 1.000E-05 01:52:42.060 1.500E-01 0.500 F -0.188 -0.771 +12° 35' 59.40" 1.000E-01 0.500 F 0.220 -0.233 o 691 1.61 Yes No
Golevka O C 2007-10-04.26728 1.000E-05 01:52:40.390 1.500E-01 0.500 F -0.188 -0.469 +12° 35' 49.40" 1.000E-01 0.500 F 0.220 0.845 o 691 1.93 Yes No
Golevka O C 2007-10-04.28489 1.000E-05 01:52:38.710 1.500E-01 0.500 F -0.188 -0.284 +12° 35' 37.60" 1.000E-01 0.500 F 0.220 0.132 o 691 0.63 Yes No
1998OR2 O C 2007-10-04.36219 1.000E-05 02:33:34.260 1.500E-01 0.500 F -0.217 0.003 +15° 53' 29.20" 1.000E-01 0.500 F 0.300 -0.057 o 691 0.11 Yes No
Hephaistos O C H 2007-10-04.36219 1.000E-05 02:35:19.150 1.500E-01 0.500 F -0.217 -0.163 +15° 46' 14.80" 1.000E-01 0.500 F 0.300 -0.166 17.8 V 0.70 0.60 o 691 0.47 Yes Yes
1998OR2 O C 2007-10-04.37981 1.000E-05 02:33:33.460 1.500E-01 0.500 F -0.217 0.160 +15° 53' 26.40" 1.000E-01 0.500 F 0.300 -0.128 o 691 0.41 Yes No
Hephaistos O C H 2007-10-04.37981 1.000E-05 02:35:17.450 1.500E-01 0.500 F -0.217 -0.008 +15° 46' 09.70" 1.000E-01 0.500 F 0.300 -0.019 17.8 V 0.70 0.60 o 691 0.04 Yes Yes
1998OR2 O C 2007-10-04.39743 1.000E-05 02:33:32.620 1.500E-01 0.500 F -0.217 -0.256 +15° 53' 23.80" 1.000E-01 0.500 F 0.300 0.011 o 691 0.51 Yes No
Hephaistos O C H 2007-10-04.39743 1.000E-05 02:35:15.780 1.500E-01 0.500 F -0.217 0.587 +15° 46' 04.00" 1.000E-01 0.500 F 0.300 -0.455 o 691 1.49 Yes No
2001MT18 O C H 2007-10-05.09411 1.000E-05 22:44:11.670 1.500E-01 0.500 F -0.115 -0.062 -09° 29' 02.40" 1.000E-01 0.500 F 0.236 -0.616 20.6 V 0.70 0.01 o 691 1.24 Yes Yes
2007RQ17 O C H 2007-10-05.10201 1.000E-05 23:00:58.690 1.500E-01 0.500 F -0.083 0.167 -04° 15' 41.60" 1.000E-01 0.500 F 0.267 -0.094 21.1 V 0.70 0.05 o 691 0.39 Yes Yes
2001MT18 O C H 2007-10-05.10732 1.000E-05 22:44:10.680 1.500E-01 0.500 F -0.115 1.235 -09° 29' 12.30" 1.000E-01 0.500 F 0.236 -0.736 o 691 2.88 Yes No
2007RQ17 O C H 2007-10-05.11522 1.000E-05 23:00:59.610 1.500E-01 0.500 F -0.083 -0.850 -04° 15' 30.00" 1.000E-01 0.500 F 0.267 0.741 20.8 V 0.70 -0.25 o 691 2.26 Yes Yes
2001MT18 O C H 2007-10-05.12052 1.000E-05 22:44:09.520 1.500E-01 0.500 F -0.115 0.033 -09° 29' 21.50" 1.000E-01 0.500 F 0.236 -0.174 o 691 0.35 Yes No
2007RQ17 O C H 2007-10-05.12842 1.000E-05 23:01:00.660 1.500E-01 0.500 F -0.083 0.227 -04° 15' 20.30" 1.000E-01 0.500 F 0.267 -0.323 21.3 V 0.70 0.25 o 691 0.79 Yes Yes
2007RF5 O C 2007-10-05.18238 1.000E-05 01:29:58.820 1.500E-01 0.500 F -0.193 -0.157 +15° 47' 34.00" 1.000E-01 0.500 F 0.218 0.006 o 691 0.32 Yes No
2007RF5 O C 2007-10-05.20001 1.000E-05 01:29:51.310 1.500E-01 0.500 F -0.193 -0.067 +15° 48' 16.50" 1.000E-01 0.500 F 0.218 -0.011 o 691 0.14 Yes No
2007RF5 O C 2007-10-05.21764 1.000E-05 01:29:43.780 1.500E-01 0.500 F -0.193 -0.050 +15° 48' 59.00" 1.000E-01 0.500 F 0.218 0.063 o 691 0.16 Yes No
2007PU11 O C 2007-10-07.27000 1.000E-05 02:15:24.170 1.500E-01 0.500 F -0.209 -0.137 +22° 04' 34.90" 1.000E-01 0.500 F 0.260 -0.010 o 691 0.28 Yes No
2007PU11 O C 2007-10-07.28764 1.000E-05 02:15:26.670 1.500E-01 0.500 F -0.209 -0.007 +22° 04' 02.50" 1.000E-01 0.500 F 0.260 -0.056 o 691 0.11 Yes No
2007PU11 O C 2007-10-07.30279 1.000E-05 02:15:28.790 1.500E-01 0.500 F -0.209 -0.171 +22° 03' 34.60" 1.000E-01 0.500 F 0.260 -0.073 o 691 0.37 Yes No
1993TQ2 O C 2007-10-07.38053 1.000E-05 03:26:34.750 1.500E-01 0.500 F -0.214 -0.208 +22° 56' 30.60" 1.000E-01 0.500 F 0.225 0.003 20.3 V 0.70 0.08 o 691 0.42 Yes Yes
1993TQ2 O C 2007-10-07.39817 1.000E-05 03:26:36.120 1.500E-01 0.500 F -0.214 -0.240 +22° 56' 52.90" 1.000E-01 0.500 F 0.225 0.128 20.2 V 0.70 -0.01 o 691 0.55 Yes Yes
1993TQ2 O C 2007-10-07.41582 1.000E-05 03:26:37.490 1.500E-01 0.500 F -0.214 -0.265 +22° 57' 14.60" 1.000E-01 0.500 F 0.225 -0.291 20.2 V 0.70 -0.01 o 691 0.79 Yes Yes
Hephaistos O C H 2007-10-08.25659 1.000E-05 02:29:01.670 1.500E-01 0.500 F -0.091 -0.261 +15° 25' 52.80" 1.000E-01 0.500 F 0.267 -0.002 17.6 V 0.70 0.45 o 691 0.52 Yes Yes
1998OR2 O C 2007-10-08.25905 1.000E-05 02:30:32.250 1.500E-01 0.500 F -0.091 -0.375 +15° 42' 44.40" 1.000E-01 0.500 F 0.267 -0.200 21.7 V 0.70 0.22 o 691 0.85 Yes Yes
2007TG25 O C 2007-10-08.26905 1.000E-05 02:40:14.140 1.500E-01 0.500 F -0.182 -0.145 +12° 47' 06.50" 1.000E-01 0.500 F 0.099 -0.112 19.7 V 0.70 0.10 o 691 0.37 Yes Yes
Hephaistos O C H 2007-10-08.27420 1.000E-05 02:28:59.910 1.500E-01 0.500 F -0.091 -0.208 +15° 25' 47.00" 1.000E-01 0.500 F 0.267 -0.094 17.6 V 0.70 0.45 o 691 0.46 Yes Yes
1998OR2 O C 2007-10-08.27667 1.000E-05 02:30:31.390 1.500E-01 0.500 F -0.091 -0.189 +15° 42' 41.90" 1.000E-01 0.500 F 0.267 0.344 20.9 V 0.70 -0.58 o 691 0.78 Yes Yes
2007TG25 O C 2007-10-08.28666 1.000E-05 02:40:12.910 1.500E-01 0.500 F -0.182 -0.302 +12° 47' 07.20" 1.000E-01 0.500 F 0.099 -0.246 19.7 V 0.70 0.10 o 691 0.78 Yes Yes
Hephaistos O C H 2007-10-08.29183 1.000E-05 02:28:58.140 1.500E-01 0.500 F -0.091 -0.236 +15° 25' 41.40" 1.000E-01 0.500 F 0.267 0.035 17.7 V 0.70 0.55 o 691 0.48 Yes Yes
1998OR2 O C 2007-10-08.29429 1.000E-05 02:30:30.500 1.500E-01 0.500 F -0.091 -0.414 +15° 42' 38.70" 1.000E-01 0.500 F 0.267 0.196 21.6 V 0.70 0.12 o 691 0.92 Yes Yes
2007TG25 O C 2007-10-08.30428 1.000E-05 02:40:11.680 1.500E-01 0.500 F -0.182 -0.359 +12° 47' 08.00" 1.000E-01 0.500 F 0.099 -0.247 20.2 V 0.70 0.60 o 691 0.88 Yes Yes
Mithra O C 2007-10-08.36919 1.000E-05 03:17:16.370 1.500E-01 0.500 F -0.211 -0.257 +15° 03' 44.60" 1.000E-01 0.500 F 0.251 0.201 20.0 V 0.70 0.07 o 691 0.65 Yes Yes
Mithra O C 2007-10-08.38680 1.000E-05 03:17:15.270 1.500E-01 0.500 F -0.211 -0.396 +15° 03' 40.10" 1.000E-01 0.500 F 0.251 0.025 19.9 V 0.70 -0.03 o 691 0.79 Yes Yes
Mithra O C 2007-10-08.40441 1.000E-05 03:17:14.190 1.500E-01 0.500 F -0.211 -0.234 +15° 03' 35.70" 1.000E-01 0.500 F 0.251 -0.037 20.1 V 0.70 0.17 o 691 0.47 Yes Yes
2005SG O C t 2007-10-08.42608 1.000E-05 03:42:12.470 1.500E-01 0.500 F -0.130 0.426 +19° 17' 13.10" 1.000E-01 0.500 F 0.154 -0.281 18.1 V 0.70 0.18 o 691 1.04 Yes Yes
2005XL80 O C H 2007-10-08.44111 1.000E-05 03:58:36.750 1.500E-01 0.500 F -0.213 0.277 +17° 26' 01.10" 1.000E-01 0.500 F 0.129 -1.013 o 691 2.10 Yes No
2005SG O C H 2007-10-08.44372 1.000E-05 03:42:06.140 1.500E-01 0.500 F -0.130 0.911 +19° 18' 38.00" 1.000E-01 0.500 F 0.154 -0.965 o 691 2.70 Yes No
2005XL80 O C H 2007-10-08.45875 1.000E-05 03:58:36.090 1.500E-01 0.500 F -0.213 -0.702 +17° 26' 02.30" 1.000E-01 0.500 F 0.129 -0.587 21.2 V 0.70 -0.72 o 691 1.83 Yes Yes
2005SG O C t 2007-10-08.46136 1.000E-05 03:41:59.750 1.500E-01 0.500 F -0.130 0.579 +19° 20' 03.60" 1.000E-01 0.500 F 0.154 -0.859 17.9 V 0.70 -0.02 o 691 2.11 Yes Yes
2005XL80 O C H 2007-10-08.47639 1.000E-05 03:58:35.560 1.500E-01 0.500 F -0.213 0.178 +17° 26' 03.00" 1.000E-01 0.500 F 0.129 -0.642 o 691 1.33 Yes No
2004UL O C t 2007-10-08.48511 1.000E-05 08:50:19.210 1.500E-01 0.500 F 0.012 0.631 +17° 16' 21.00" 1.000E-01 0.500 F 0.161 -0.385 19.1 V 0.70 -0.69 o 691 1.55 Yes Yes
2004UL O C t 2007-10-08.49765 1.000E-05 08:50:30.380 1.500E-01 0.500 F 0.012 0.542 +17° 15' 57.00" 1.000E-01 0.500 F 0.161 -0.692 19.5 V 0.70 -0.29 o 691 1.81 Yes Yes
2004UL O C t 2007-10-08.51023 1.000E-05 08:50:41.600 1.500E-01 0.500 F 0.012 0.668 +17° 15' 33.40" 1.000E-01 0.500 F 0.161 -0.449 19.1 V 0.70 -0.69 o 691 1.68 Yes Yes
1995QN3 O C 2007-10-09.09309 1.000E-05 22:31:23.020 1.500E-01 0.500 F -0.048 -0.149 -03° 39' 14.00" 1.000E-01 0.500 F 0.173 0.067 20.1 V 0.70 -0.18 o 691 0.33 Yes Yes
Nut O C 2007-10-09.10933 1.000E-05 22:38:33.710 1.500E-01 0.500 F -0.113 -0.168 -08° 17' 55.60" 1.000E-01 0.500 F 0.259 -0.011 20.5 V 0.70 -0.18 o 691 0.34 Yes Yes
1995QN3 O C 2007-10-09.11206 1.000E-05 22:31:22.920 1.500E-01 0.500 F -0.048 -0.269 -03° 39' 24.90" 1.000E-01 0.500 F 0.173 0.110 19.9 V 0.70 -0.38 o 691 0.58 Yes Yes
Nut O C 2007-10-09.12830 1.000E-05 22:38:32.710 1.500E-01 0.500 F -0.113 -0.156 -08° 18' 00.90" 1.000E-01 0.500 F 0.259 -0.076 20.5 V 0.70 -0.18 o 691 0.35 Yes Yes
1995QN3 O C 2007-10-09.13104 1.000E-05 22:31:22.840 1.500E-01 0.500 F -0.048 -0.059 -03° 39' 36.00" 1.000E-01 0.500 F 0.173 -0.051 20.1 V 0.70 -0.18 o 691 0.16 Yes Yes
Nut O C 2007-10-09.14728 1.000E-05 22:38:31.710 1.500E-01 0.500 F -0.113 -0.119 -08° 18' 06.20" 1.000E-01 0.500 F 0.259 -0.147 20.4 V 0.70 -0.28 o 691 0.38 Yes Yes
2005SS4 O C H 2007-10-09.21253 1.000E-05 02:01:55.040 1.500E-01 0.500 F -0.133 -0.467 +10° 31' 20.10" 1.000E-01 0.500 F 0.252 0.117 o 691 0.99 Yes No
2007UR3 O C 2007-10-09.21499 1.000E-05 02:09:15.960 1.500E-01 0.500 F -0.016 -0.378 +09° 57' 40.30" 1.000E-01 0.500 F 0.189 -0.200 21.0 V 0.70 -0.06 o 691 0.86 Yes Yes
2005SS4 O C H 2007-10-09.23016 1.000E-05 02:01:52.910 1.500E-01 0.500 F -0.133 -0.334 +10° 31' 12.80" 1.000E-01 0.500 F 0.252 -0.190 o 691 0.79 Yes No
2007UR3 O C 2007-10-09.23262 1.000E-05 02:09:15.160 1.500E-01 0.500 F -0.016 -0.040 +09° 57' 32.90" 1.000E-01 0.500 F 0.189 0.025 20.9 V 0.70 -0.16 o 691 0.09 Yes Yes
2005SS4 O C H 2007-10-09.24779 1.000E-05 02:01:50.740 1.500E-01 0.500 F -0.133 -0.740 +10° 31' 05.40" 1.000E-01 0.500 F 0.252 -0.586 21.3 V 0.70 -0.57 o 691 1.92 Yes Yes
2007UR3 O C 2007-10-09.25025 1.000E-05 02:09:14.330 1.500E-01 0.500 F -0.016 0.006 +09° 57' 25.50" 1.000E-01 0.500 F 0.189 0.281 21.1 V 0.70 0.04 o 691 0.56 Yes Yes
2007RR17 O C H 2007-10-09.38241 1.000E-05 03:19:45.680 1.500E-01 0.612 F -0.221 -0.076 +24° 49' 38.80" 1.000E-01 0.612 F 0.169 -0.498 20.6 V 0.70 -0.05 o 691 0.84 Yes Yes
2001YJ4 O C H 2007-10-09.38488 1.000E-05 03:23:44.910 1.500E-01 0.500 F -0.260 -0.246 +23° 47' 17.50" 1.000E-01 0.500 F 0.191 -0.949 20.7 V 0.70 -1.10 o 691 1.96 Yes Yes
2007RR17 O C 2007-10-09.38488 1.000E-05 03:19:45.630 1.500E-01 0.612 F -0.221 0.218 +24° 49' 39.80" 1.000E-01 0.612 F 0.169 -0.085 20.7 V 0.70 0.05 o 691 0.39 Yes Yes
2007RR17 O C H 2007-10-09.40010 1.000E-05 03:19:45.160 1.500E-01 0.612 F -0.221 -0.147 +24° 49' 42.60" 1.000E-01 0.612 F 0.169 -0.762 20.9 V 0.70 0.25 o 691 1.30 Yes Yes
2001YJ4 O C H 2007-10-09.40257 1.000E-05 03:23:44.290 1.500E-01 0.500 F -0.260 1.283 +23° 47' 15.80" 1.000E-01 0.500 F 0.191 -0.065 20.7 V 0.70 -1.10 o 691 2.57 Yes Yes
2007RR17 O C 2007-10-09.40257 1.000E-05 03:19:45.100 1.500E-01 0.612 F -0.221 0.017 +24° 49' 44.50" 1.000E-01 0.612 F 0.169 0.596 20.5 V 0.70 -0.15 o 691 0.99 Yes Yes
2007RR17 O C H 2007-10-09.41778 1.000E-05 03:19:44.640 1.500E-01 0.612 F -0.221 -0.208 +24° 49' 46.40" 1.000E-01 0.612 F 0.169 -0.705 21.4 V 0.70 0.75 o 691 1.23 Yes Yes
2001YJ4 O C H 2007-10-09.42025 1.000E-05 03:23:43.490 1.500E-01 0.500 F -0.260 0.340 +23° 47' 13.40" 1.000E-01 0.500 F 0.191 0.134 20.7 V 0.70 -1.10 o 691 0.73 Yes Yes
2007RR17 O C 2007-10-09.42025 1.000E-05 03:19:44.590 1.500E-01 0.612 F -0.221 0.089 +24° 49' 47.30" 1.000E-01 0.612 F 0.169 -0.303 21.0 V 0.70 0.35 o 691 0.52 Yes Yes
2007TY18 O C 2007-10-09.42775 1.000E-05 03:40:24.950 1.500E-01 0.500 F -0.019 -0.153 +27° 39' 12.20" 1.000E-01 0.500 F 0.106 0.040 19.8 V 0.70 -0.51 o 691 0.32 Yes Yes
2007TY18 O C 2007-10-09.44542 1.000E-05 03:40:23.900 1.500E-01 0.500 F -0.019 -0.352 +27° 39' 17.60" 1.000E-01 0.500 F 0.106 -0.347 19.9 V 0.70 -0.40 o 691 1.00 Yes Yes
2007TY18 O C 2007-10-09.46311 1.000E-05 03:40:22.890 1.500E-01 0.500 F -0.019 -0.011 +27° 39' 23.70" 1.000E-01 0.500 F 0.106 0.009 20.5 V 0.70 0.20 o 691 0.03 Yes Yes
2007TD1 O C t 2007-10-10.20503 1.000E-05 01:58:07.650 1.500E-01 0.500 F -0.330 1.059 +18° 47' 37.00" 1.000E-01 0.500 F 0.175 -0.388 20.9 V 0.70 0.59 o 691 2.41 Yes Yes
2007TB14 O C t 2007-10-10.21512 1.000E-05 02:03:01.260 1.500E-01 0.500 F -0.309 2.027 +17° 50' 02.00" 1.000E-01 0.500 F 0.177 -4.917 o 691 9.96 No No
2007TD1 O C t 2007-10-10.22267 1.000E-05 01:58:18.960 1.500E-01 0.500 F -0.330 -0.018 +18° 49' 16.70" 1.000E-01 0.500 F 0.175 -1.345 20.1 V 0.70 -0.21 o 691 2.85 Yes Yes
2007TB14 O C t 2007-10-10.23276 1.000E-05 02:03:04.170 1.500E-01 0.500 F -0.309 0.561 +17° 48' 02.60" 1.000E-01 0.500 F 0.177 -0.811 o 691 2.12 Yes No
2007TB14 O C t 2007-10-10.25039 1.000E-05 02:03:07.140 1.500E-01 0.500 F -0.309 0.997 +17° 45' 57.80" 1.000E-01 0.500 F 0.177 -2.295 o 691 4.67 No No
2006RJ1 O C H 2007-10-10.43717 1.000E-05 03:56:31.490 1.500E-01 0.500 F -0.182 -0.430 +14° 59' 10.30" 1.000E-01 0.500 F 0.111 -0.027 20.9 V 0.70 -0.66 o 691 0.87 Yes Yes
2006RJ1 O C H 2007-10-10.45225 1.000E-05 03:56:30.180 1.500E-01 0.500 F -0.182 0.348 +14° 59' 03.10" 1.000E-01 0.500 F 0.111 -0.325 o 691 0.96 Yes No
2006RJ1 O C H 2007-10-10.46486 1.000E-05 03:56:29.050 1.500E-01 0.500 F -0.182 0.485 +14° 58' 58.60" 1.000E-01 0.500 F 0.111 0.994 20.8 V 0.70 -0.76 o 691 2.23 Yes Yes
2007QK2 O C 2007-10-11.09770 1.000E-05 22:58:13.110 1.500E-01 0.500 F 0.007 -0.269 -08° 29' 59.70" 1.000E-01 0.500 F 0.254 0.151 19.2 V 0.70 0.25 o 691 0.63 Yes Yes
2007QK2 O C t 2007-10-11.10022 1.000E-05 22:58:13.670 1.500E-01 0.500 F 0.007 0.160 -08° 29' 59.50" 1.000E-01 0.500 F 0.254 -0.224 19.0 V 0.70 0.05 o 691 0.57 Yes Yes
2007QK2 O C 2007-10-11.11405 1.000E-05 22:58:16.550 1.500E-01 0.500 F 0.007 -0.256 -08° 29' 55.80" 1.000E-01 0.500 F 0.254 0.298 19.1 V 0.70 0.14 o 691 0.81 Yes Yes
Amor O C H 2007-10-11.11657 1.000E-05 22:50:39.800 1.500E-01 0.500 F -0.228 0.299 -08° 17' 31.90" 1.000E-01 0.500 F 0.265 -0.247 o 691 0.78 Yes No
2007QK2 O C 2007-10-11.12694 1.000E-05 22:58:19.360 1.500E-01 0.500 F 0.007 1.357 -08° 29' 53.10" 1.000E-01 0.500 F 0.254 0.004 18.7 V 0.70 -0.26 o 691 2.79 Yes Yes
Amor O C H 2007-10-11.12945 1.000E-05 22:50:39.260 1.500E-01 0.500 F -0.228 -0.827 -08° 17' 37.20" 1.000E-01 0.500 F 0.265 -0.195 21.8 V 0.70 0.41 o 691 1.70 Yes Yes
2007RZ19 O C H 2007-10-11.21362 1.000E-05 02:14:55.710 1.500E-01 0.500 F -0.171 -0.326 +07° 53' 33.90" 1.000E-01 0.500 F 0.215 -0.399 21.0 V 0.70 0.08 o 691 1.10 Yes Yes
2007RZ19 O C H 2007-10-11.23124 1.000E-05 02:14:55.830 1.500E-01 0.500 F -0.171 0.303 +07° 53' 23.30" 1.000E-01 0.500 F 0.215 -0.233 20.7 V 0.70 -0.22 o 691 0.81 Yes Yes
2007RZ19 O C H 2007-10-11.24887 1.000E-05 02:14:55.870 1.500E-01 0.500 F -0.171 -0.031 +07° 53' 13.00" 1.000E-01 0.500 F 0.215 0.268 21.0 V 0.70 0.08 o 691 0.57 Yes Yes
2002RC118 O C 2007-10-11.26688 1.000E-05 02:13:19.080 1.500E-01 0.612 F -0.154 -0.040 +21° 41' 27.20" 1.000E-01 0.612 F 0.267 0.041 16.9 V 0.70 0.11 o 691 0.09 Yes Yes
2002RC118 O C 2007-10-11.26935 1.000E-05 02:13:19.130 1.500E-01 0.612 F -0.154 -0.991 +21° 41' 19.80" 1.000E-01 0.612 F 0.267 -0.062 16.8 V 0.70 0.01 o 691 1.63 Yes Yes
2007RQ133 O C H 2007-10-11.27182 1.000E-05 02:29:04.570 1.500E-01 0.500 F -0.191 0.084 +21° 38' 18.70" 1.000E-01 0.500 F 0.279 -0.051 20.3 V 0.70 -0.13 o 691 0.21 Yes Yes
2007TD1 O C 2007-10-11.27508 1.000E-05 02:09:52.600 1.500E-01 0.500 F -0.295 -0.241 +20° 20' 35.40" 1.000E-01 0.500 F 0.154 0.189 20.3 V 0.70 -0.17 o 691 0.65 Yes Yes
2007PU11 O C 2007-10-11.28349 1.000E-05 02:25:25.570 1.500E-01 0.500 F -0.298 -0.130 +19° 49' 09.90" 1.000E-01 0.500 F 0.206 -0.016 15.0 V 0.70 -0.21 o 691 0.26 Yes Yes
2002RC118 O C 2007-10-11.28867 1.000E-05 02:13:20.130 1.500E-01 0.612 F -0.154 0.117 +21° 40' 22.70" 1.000E-01 0.612 F 0.267 -0.022 16.9 V 0.70 0.11 o 691 0.20 Yes Yes
2002RC118 O C 2007-10-11.29114 1.000E-05 02:13:20.230 1.500E-01 0.612 F -0.154 -0.122 +21° 40' 15.20" 1.000E-01 0.612 F 0.267 -0.208 16.9 V 0.70 0.11 o 691 0.40 Yes Yes
2007RQ133 O C H 2007-10-11.29707 1.000E-05 02:29:01.260 1.500E-01 0.500 F -0.191 -0.084 +21° 38' 24.70" 1.000E-01 0.500 F 0.279 0.064 21.0 V 0.70 0.57 o 691 0.22 Yes Yes
2007TD1 O C 2007-10-11.29970 1.000E-05 02:10:07.070 1.500E-01 0.500 F -0.295 0.009 +20° 22' 38.40" 1.000E-01 0.500 F 0.154 0.682 19.9 V 0.70 -0.57 o 691 1.46 Yes Yes
2007PU11 O C 2007-10-11.30465 1.000E-05 02:25:28.520 1.500E-01 0.500 F -0.298 -0.197 +19° 48' 24.00" 1.000E-01 0.500 F 0.206 -0.054 14.9 V 0.70 -0.31 o 691 0.41 Yes Yes
2002RC118 O C 2007-10-11.30983 1.000E-05 02:13:21.120 1.500E-01 0.612 F -0.154 -0.034 +21° 39' 19.90" 1.000E-01 0.612 F 0.267 -0.097 17.0 V 0.70 0.21 o 691 0.17 Yes Yes
2002RC118 O C 2007-10-11.31230 1.000E-05 02:13:21.230 1.500E-01 0.612 F -0.154 -0.124 +21° 39' 12.60" 1.000E-01 0.612 F 0.267 -0.065 16.9 V 0.70 0.11 o 691 0.23 Yes Yes
2007RQ133 O C t 2007-10-11.31477 1.000E-05 02:28:59.010 1.500E-01 0.500 F -0.191 0.833 +21° 38' 28.30" 1.000E-01 0.500 F 0.279 -0.406 20.6 V 0.70 0.17 o 691 1.93 Yes Yes
2007TD1 O C 2007-10-11.31740 1.000E-05 02:10:17.370 1.500E-01 0.500 F -0.295 -0.502 +20° 24' 05.20" 1.000E-01 0.500 F 0.154 0.217 19.7 V 0.70 -0.77 o 691 1.19 Yes Yes
2007PU11 O C 2007-10-11.32234 1.000E-05 02:25:30.980 1.500E-01 0.500 F -0.298 -0.231 +19° 47' 45.70" 1.000E-01 0.500 F 0.206 0.119 14.9 V 0.70 -0.31 o 691 0.52 Yes Yes
2007UH O C 2007-10-11.34120 1.000E-05 02:39:34.640 1.500E-01 0.500 F -0.302 0.079 +20° 34' 49.60" 1.000E-01 0.500 F 0.236 -0.141 20.5 V 0.70 -0.13 o 691 0.34 Yes Yes
2007UH O C 2007-10-11.36236 1.000E-05 02:39:34.330 1.500E-01 0.500 F -0.302 0.149 +20° 33' 54.80" 1.000E-01 0.500 F 0.236 0.137 20.4 V 0.70 -0.23 o 691 0.47 Yes Yes
2007UH O C 2007-10-11.38005 1.000E-05 02:39:34.040 1.500E-01 0.500 F -0.302 -0.194 +20° 33' 08.50" 1.000E-01 0.500 F 0.236 0.077 20.4 V 0.70 -0.22 o 691 0.44 Yes Yes
Nut O C 2007-10-12.09293 1.000E-05 22:36:04.930 1.500E-01 0.500 F -0.132 -0.104 -08° 31' 02.60" 1.000E-01 0.500 F 0.276 -0.027 20.4 V 0.70 -0.32 o 691 0.22 Yes Yes
Nut O C 2007-10-12.11209 1.000E-05 22:36:04.000 1.500E-01 0.500 F -0.132 0.093 -08° 31' 07.50" 1.000E-01 0.500 F 0.276 -0.053 20.4 V 0.70 -0.32 o 691 0.22 Yes Yes
Nut O C 2007-10-12.13126 1.000E-05 22:36:03.040 1.500E-01 0.500 F -0.132 -0.130 -08° 31' 12.50" 1.000E-01 0.500 F 0.276 -0.185 20.8 V 0.70 0.08 o 691 0.45 Yes Yes
2007TB14 O C 2007-10-12.21142 1.000E-05 02:08:29.320 1.500E-01 0.500 F -0.256 -0.089 +14° 31' 54.70" 1.000E-01 0.500 F 0.151 0.037 20.1 V 0.70 0.10 o 691 0.21 Yes Yes
2007TB14 O C 2007-10-12.22906 1.000E-05 02:08:31.160 1.500E-01 0.500 F -0.256 0.077 +14° 30' 29.70" 1.000E-01 0.500 F 0.151 0.562 20.6 V 0.70 0.59 o 691 1.25 Yes Yes
2007TB14 O C 2007-10-12.24671 1.000E-05 02:08:32.860 1.500E-01 0.500 F -0.256 -0.999 +14° 29' 04.30" 1.000E-01 0.500 F 0.151 0.689 19.8 V 0.70 -0.21 o 691 2.61 Yes Yes
Hephaistos O C 2007-10-12.26315 1.000E-05 02:22:21.940 1.500E-01 0.500 F -0.181 0.009 +15° 03' 02.00" 1.000E-01 0.500 F 0.242 0.067 18.6 V 0.70 1.51 o 691 0.13 Yes Yes

[1-200] [201-400] [401-600] [601-800] [801-1000] [1001-1200] [1201-1400] [1401-1600] [1601-1800] [1801-2000] [2001-2200] [2201-2400] [2401-2600] [2601-2800] [2801-3000] [3001-3200] [3201-3400] [3401-3600] [3601-3800] [3801-4000] [4001-4200] [4201-4400] [4401-4600] [4601-4800] [4801-5000] [5001-5200] [5201-5400] [5401-5600] [5601-5800] [5801-6000] [6001-6200] [6201-6400] [6401-6600] [6601-6800] [6801-7000] [7001-7200] [7201-7400] [7401-7600] [7601-7800] [7801-8000] [8001-8200] [8201-8400] [8401-8600] [8601-8800] [8801-9000] [9001-9200] [9201-9400] [9401-9600] [9601-9800] [9801-10000] [10001-10200] [10201-10400] [10401-10600] [10601-10800] [10801-11000] [11001-11200] [11201-11400] [11401-11600] [11601-11800] [11801-12000] [12001-12200] [12201-12400] [12401-12600] [12601-12800] [12801-13000] [13001-13200] [13201-13400] [13401-13600] [13601-13800] [13801-14000] [14001-14200] [14201-14400] [14401-14600] [14601-14800] [14801-15000] [15001-15200] [15201-15400] [15401-15600] [15601-15800] [15801-16000] [16001-16200] [16201-16400] [16401-16600] [16601-16800] [16801-17000] [17001-17200] [17201-17400] [17401-17600] [17601-17800] [17801-18000] [18001-18200] [18201-18400] [18401-18600] [18601-18800] [18801-19000] [19001-19200] [19201-19400] [19401-19600] [19601-19800] [19801-20000] [20001-20200] [20201-20400] [20401-20600] [20601-20800] [20801-21000] [21001-21200] [21201-21400] [21401-21600] [21601-21800] [21801-22000] [22001-22200] [22201-22400] [22401-22600] [22601-22800] [22801-23000] [23001-23200] [23201-23400] [23401-23600] [23601-23800] [23801-24000] [24001-24200] [24201-24400] [24401-24600] [24601-24800] [24801-25000] [25001-25200] [25201-25400] [25401-25600] [25601-25800] [25801-26000] [26001-26200] [26201-26400] [26401-26600] [26601-26800] [26801-27000] [27001-27200] [27201-27400] [27401-27600] [27601-27800] [27801-28000] [28001-28200] [28201-28400] [28401-28600] [28601-28800] [28801-29000] [29001-29200] [29201-29400] [29401-29600] [29601-29800] [29801-30000] [30001-30200] [30201-30400] [30401-30600] [30601-30800] [30801-31000] [31001-31200] [31201-31400] [31401-31600] [31601-31800] [31801-32000] [32001-32200] [32201-32400] [32401-32600] [32601-32800] [32801-33000] [33001-33200] [33201-33400] [33401-33600] [33601-33800] [33801-34000] [34001-34200] [34201-34400] [34401-34600] [34601-34800] [34801-35000] [35001-35200] [35201-35400] [35401-35600] [35601-35800] [35801-36000] [36001-36200] [36201-36400] [36401-36600] [36601-36800] [36801-37000] [37001-37200] [37201-37400] [37401-37600] [37601-37800] [37801-38000] [38001-38200] [38201-38400] [38401-38600] [38601-38800] [38801-39000] [39001-39200] [39201-39400] [39401-39600] [39601-39800] [39801-40000] [40001-40200] [40201-40400] [40401-40600] [40601-40800] [40801-41000] [41001-41200] [41201-41400] [41401-41600] [41601-41800] [41801-42000] [42001-42200] [42201-42400] [42401-42600] [42601-42800] [42801-43000] [43001-43200] [43201-43400] [43401-43600] [43601-43800] [43801-44000] [44001-44200] [44201-44400] [44401-44600] [44601-44800] [44801-45000] [45001-45200] [45201-45400] [45401-45600] [45601-45800] [45801-46000] [46001-46200] [46201-46400] [46401-46600] [46601-46800] [46801-47000] [47001-47200] [47201-47400] [47401-47600] [47601-47800] [47801-48000] [48001-48200] [48201-48400] [48401-48600] [48601-48800] [48801-49000] [49001-49200] [49201-49400] [49401-49600] [49601-49800] [49801-50000] [50001-50200] [50201-50388]